sensor_id;sensor_type;location;lat;lon;timestamp;pressure;altitude;pressure_sealevel;temperature;humidity
26376;BME280;30544;42.196;24.336;2023-03-04T00:02:17;99268.81;;;5.61;94.75
26376;BME280;30544;42.196;24.336;2023-03-04T00:04:44;99272.22;;;5.37;95.83
26376;BME280;30544;42.196;24.336;2023-03-04T00:07:11;99266.72;;;5.10;96.80
26376;BME280;30544;42.196;24.336;2023-03-04T00:09:41;99260.81;;;5.13;96.81
26376;BME280;30544;42.196;24.336;2023-03-04T00:12:08;99251.06;;;5.18;96.00
26376;BME280;30544;42.196;24.336;2023-03-04T00:14:35;99253.19;;;5.16;96.22
26376;BME280;30544;42.196;24.336;2023-03-04T00:17:02;99252.78;;;5.05;96.64
26376;BME280;30544;42.196;24.336;2023-03-04T00:19:30;99251.28;;;5.16;97.04
26376;BME280;30544;42.196;24.336;2023-03-04T00:21:57;99249.78;;;5.40;95.71
26376;BME280;30544;42.196;24.336;2023-03-04T00:24:24;99252.75;;;5.45;95.40
26376;BME280;30544;42.196;24.336;2023-03-04T00:26:50;99257.81;;;5.35;94.59
26376;BME280;30544;42.196;24.336;2023-03-04T00:29:17;99266.25;;;5.53;94.93
26376;BME280;30544;42.196;24.336;2023-03-04T00:31:44;99266.53;;;5.38;95.56
26376;BME280;30544;42.196;24.336;2023-03-04T00:34:11;99255.25;;;5.53;95.27
26376;BME280;30544;42.196;24.336;2023-03-04T00:36:39;99256.94;;;5.74;94.64
26376;BME280;30544;42.196;24.336;2023-03-04T00:39:09;99254.41;;;5.59;94.68
26376;BME280;30544;42.196;24.336;2023-03-04T00:41:35;99255.25;;;5.73;94.55
26376;BME280;30544;42.196;24.336;2023-03-04T00:44:03;99253.97;;;5.76;94.37
26376;BME280;30544;42.196;24.336;2023-03-04T00:46:30;99260.31;;;5.69;94.11
26376;BME280;30544;42.196;24.336;2023-03-04T00:48:56;99254.22;;;5.48;95.04
26376;BME280;30544;42.196;24.336;2023-03-04T00:51:23;99246.97;;;5.73;94.90
26376;BME280;30544;42.196;24.336;2023-03-04T00:53:51;99244.63;;;5.70;94.43
26376;BME280;30544;42.196;24.336;2023-03-04T00:56:18;99241.25;;;5.68;94.58
26376;BME280;30544;42.196;24.336;2023-03-04T00:58:45;99238.28;;;5.69;93.92
26376;BME280;30544;42.196;24.336;2023-03-04T01:01:11;99232.78;;;5.69;94.71
26376;BME280;30544;42.196;24.336;2023-03-04T01:03:38;99238.06;;;5.71;94.39
26376;BME280;30544;42.196;24.336;2023-03-04T01:06:06;99249.34;;;5.50;95.27
26376;BME280;30544;42.196;24.336;2023-03-04T01:08:33;99236.81;;;5.73;95.71
26376;BME280;30544;42.196;24.336;2023-03-04T01:11:01;99244.63;;;5.70;95.19
26376;BME280;30544;42.196;24.336;2023-03-04T01:13:28;99241.75;;;5.45;95.91
26376;BME280;30544;42.196;24.336;2023-03-04T01:15:54;99248.06;;;5.52;95.50
26376;BME280;30544;42.196;24.336;2023-03-04T01:18:22;99247.63;;;5.62;95.90
26376;BME280;30544;42.196;24.336;2023-03-04T01:20:48;99244.69;;;5.50;96.09
26376;BME280;30544;42.196;24.336;2023-03-04T01:23:16;99242.97;;;5.62;95.63
26376;BME280;30544;42.196;24.336;2023-03-04T01:25:42;99233.91;;;5.49;96.51
26376;BME280;30544;42.196;24.336;2023-03-04T01:28:11;99227.56;;;5.41;97.64
26376;BME280;30544;42.196;24.336;2023-03-04T01:30:37;99229.03;;;5.51;98.03
26376;BME280;30544;42.196;24.336;2023-03-04T01:33:04;99220.56;;;5.59;97.69
26376;BME280;30544;42.196;24.336;2023-03-04T01:35:31;99217.78;;;5.65;97.28
26376;BME280;30544;42.196;24.336;2023-03-04T01:37:58;99219.44;;;5.80;96.96
26376;BME280;30544;42.196;24.336;2023-03-04T01:40:24;99215.00;;;5.79;97.31
26376;BME280;30544;42.196;24.336;2023-03-04T01:42:51;99216.91;;;5.78;97.17
26376;BME280;30544;42.196;24.336;2023-03-04T01:45:20;99208.19;;;5.81;97.86
26376;BME280;30544;42.196;24.336;2023-03-04T01:47:47;99213.47;;;5.83;99.00
26376;BME280;30544;42.196;24.336;2023-03-04T01:50:20;99215.03;;;5.72;99.46
26376;BME280;30544;42.196;24.336;2023-03-04T01:52:47;99220.19;;;5.29;100.00
26376;BME280;30544;42.196;24.336;2023-03-04T01:55:15;99211.06;;;5.35;100.00
26376;BME280;30544;42.196;24.336;2023-03-04T01:57:43;99218.44;;;5.48;98.96
26376;BME280;30544;42.196;24.336;2023-03-04T02:00:18;99217.88;;;4.86;100.00
26376;BME280;30544;42.196;24.336;2023-03-04T02:02:49;99215.97;;;5.00;100.00
26376;BME280;30544;42.196;24.336;2023-03-04T02:05:17;99218.09;;;5.11;100.00
26376;BME280;30544;42.196;24.336;2023-03-04T02:07:44;99224.63;;;5.17;99.12
26376;BME280;30544;42.196;24.336;2023-03-04T02:10:11;99226.97;;;5.13;99.02
26376;BME280;30544;42.196;24.336;2023-03-04T02:12:38;99226.53;;;4.96;100.00
26376;BME280;30544;42.196;24.336;2023-03-04T02:15:07;99225.91;;;5.07;99.44
26376;BME280;30544;42.196;24.336;2023-03-04T02:17:34;99222.31;;;5.00;99.43
26376;BME280;30544;42.196;24.336;2023-03-04T02:20:10;99218.09;;;5.04;99.36
26376;BME280;30544;42.196;24.336;2023-03-04T02:22:43;99221.47;;;5.13;99.27
26376;BME280;30544;42.196;24.336;2023-03-04T02:25:17;99221.06;;;5.09;99.05
26376;BME280;30544;42.196;24.336;2023-03-04T02:27:48;99215.53;;;5.16;99.13
26376;BME280;30544;42.196;24.336;2023-03-04T02:30:16;99218.72;;;5.26;98.54
26376;BME280;30544;42.196;24.336;2023-03-04T02:32:43;99218.09;;;5.04;98.45
26376;BME280;30544;42.196;24.336;2023-03-04T02:35:13;99207.09;;;5.04;99.76
26376;BME280;30544;42.196;24.336;2023-03-04T02:37:42;99197.75;;;5.19;98.72
26376;BME280;30544;42.196;24.336;2023-03-04T02:40:13;99203.25;;;5.19;98.95
26376;BME280;30544;42.196;24.336;2023-03-04T02:42:43;99202.44;;;5.11;98.21
26376;BME280;30544;42.196;24.336;2023-03-04T02:45:35;99198.81;;;5.18;98.25
26376;BME280;30544;42.196;24.336;2023-03-04T02:48:02;99197.53;;;5.20;97.35
26376;BME280;30544;42.196;24.336;2023-03-04T02:50:33;99199.69;;;5.11;97.95
26376;BME280;30544;42.196;24.336;2023-03-04T02:53:00;99205.63;;;4.95;99.47
26376;BME280;30544;42.196;24.336;2023-03-04T02:55:27;99210.91;;;4.90;100.00
26376;BME280;30544;42.196;24.336;2023-03-04T02:57:54;99209.84;;;4.91;100.00
26376;BME280;30544;42.196;24.336;2023-03-04T03:00:21;99202.88;;;5.08;99.16
26376;BME280;30544;42.196;24.336;2023-03-04T03:02:49;99209.22;;;5.09;99.32
26376;BME280;30544;42.196;24.336;2023-03-04T03:05:16;99198.41;;;5.14;98.15
26376;BME280;30544;42.196;24.336;2023-03-04T03:07:44;99202.44;;;5.11;98.13
26376;BME280;30544;42.196;24.336;2023-03-04T03:10:10;99199.06;;;5.09;98.67
26376;BME280;30544;42.196;24.336;2023-03-04T03:12:37;99199.91;;;5.10;98.00
26376;BME280;30544;42.196;24.336;2023-03-04T03:15:05;99202.44;;;5.11;98.17
26376;BME280;30544;42.196;24.336;2023-03-04T03:17:32;99202.44;;;5.11;97.77
26376;BME280;30544;42.196;24.336;2023-03-04T03:20:00;99209.63;;;5.06;98.99
26376;BME280;30544;42.196;24.336;2023-03-04T03:22:27;99202.19;;;5.20;98.15
26376;BME280;30544;42.196;24.336;2023-03-04T03:24:54;99203.69;;;5.29;98.05
26376;BME280;30544;42.196;24.336;2023-03-04T03:27:21;99207.72;;;5.13;97.92
26376;BME280;30544;42.196;24.336;2023-03-04T03:29:48;99207.06;;;5.18;98.57
26376;BME280;30544;42.196;24.336;2023-03-04T03:32:15;99199.69;;;5.25;98.29
26376;BME280;30544;42.196;24.336;2023-03-04T03:34:41;99203.06;;;5.27;98.96
26376;BME280;30544;42.196;24.336;2023-03-04T03:37:09;99201.56;;;5.31;98.90
26376;BME280;30544;42.196;24.336;2023-03-04T03:39:36;99202.88;;;5.08;99.07
26376;BME280;30544;42.196;24.336;2023-03-04T03:42:03;99205.41;;;5.10;100.00
26376;BME280;30544;42.196;24.336;2023-03-04T03:44:30;99201.59;;;5.11;100.00
26376;BME280;30544;42.196;24.336;2023-03-04T03:46:57;99208.56;;;5.13;100.00
26376;BME280;30544;42.196;24.336;2023-03-04T03:49:24;99202.66;;;5.10;100.00
26376;BME280;30544;42.196;24.336;2023-03-04T03:51:50;99208.78;;;5.05;100.00
26376;BME280;30544;42.196;24.336;2023-03-04T03:54:19;99213.44;;;4.59;100.00
26376;BME280;30544;42.196;24.336;2023-03-04T03:56:45;99205.13;;;4.32;100.00
26376;BME280;30544;42.196;24.336;2023-03-04T03:59:12;99206.00;;;4.46;100.00
26376;BME280;30544;42.196;24.336;2023-03-04T04:01:39;99212.31;;;4.33;100.00
26376;BME280;30544;42.196;24.336;2023-03-04T04:04:06;99212.94;;;4.35;100.00
26376;BME280;30544;42.196;24.336;2023-03-04T04:06:32;99217.66;;;4.61;100.00
26376;BME280;30544;42.196;24.336;2023-03-04T04:08:59;99229.88;;;4.39;100.00
26376;BME280;30544;42.196;24.336;2023-03-04T04:11:27;99222.88;;;4.36;100.00
26376;BME280;30544;42.196;24.336;2023-03-04T04:13:54;99219.50;;;4.34;100.00
26376;BME280;30544;42.196;24.336;2023-03-04T04:16:21;99219.69;;;4.33;100.00
26376;BME280;30544;42.196;24.336;2023-03-04T04:18:48;99228.19;;;4.38;100.00
26376;BME280;30544;42.196;24.336;2023-03-04T04:21:14;99232.44;;;4.53;100.00
26376;BME280;30544;42.196;24.336;2023-03-04T04:23:41;99230.28;;;4.42;100.00
26376;BME280;30544;42.196;24.336;2023-03-04T04:26:08;99218.03;;;4.45;100.00
26376;BME280;30544;42.196;24.336;2023-03-04T04:28:36;99228.56;;;4.28;100.00
26376;BME280;30544;42.196;24.336;2023-03-04T04:31:06;99227.56;;;4.42;100.00
26376;BME280;30544;42.196;24.336;2023-03-04T04:33:33;99225.69;;;4.56;100.00
26376;BME280;30544;42.196;24.336;2023-03-04T04:35:59;99233.06;;;4.56;100.00
26376;BME280;30544;42.196;24.336;2023-03-04T04:38:28;99226.91;;;4.40;100.00
26376;BME280;30544;42.196;24.336;2023-03-04T04:40:56;99236.22;;;4.39;100.00
26376;BME280;30544;42.196;24.336;2023-03-04T04:43:23;99227.88;;;4.06;100.00
26376;BME280;30544;42.196;24.336;2023-03-04T04:45:51;99231.16;;;4.49;100.00
26376;BME280;30544;42.196;24.336;2023-03-04T04:48:18;99229.84;;;4.32;100.00
26376;BME280;30544;42.196;24.336;2023-03-04T04:50:45;99228.19;;;4.38;100.00
26376;BME280;30544;42.196;24.336;2023-03-04T04:53:12;99218.03;;;4.51;100.00
26376;BME280;30544;42.196;24.336;2023-03-04T04:55:38;99228.59;;;4.48;100.00
26376;BME280;30544;42.196;24.336;2023-03-04T04:58:05;99223.97;;;4.48;100.00
26376;BME280;30544;42.196;24.336;2023-03-04T05:00:32;99226.91;;;4.47;100.00
26376;BME280;30544;42.196;24.336;2023-03-04T05:03:00;99230.94;;;4.44;100.00
26376;BME280;30544;42.196;24.336;2023-03-04T05:05:27;99222.72;;;4.58;100.00
26376;BME280;30544;42.196;24.336;2023-03-04T05:07:54;99228.88;;;4.73;100.00
26376;BME280;30544;42.196;24.336;2023-03-04T05:10:21;99241.13;;;4.77;98.79
26376;BME280;30544;42.196;24.336;2023-03-04T05:12:47;99235.63;;;4.70;98.81
26376;BME280;30544;42.196;24.336;2023-03-04T05:15:15;99245.09;;;4.48;99.27
26376;BME280;30544;42.196;24.336;2023-03-04T05:17:42;99230.00;;;4.17;100.00
26376;BME280;30544;42.196;24.336;2023-03-04T05:20:11;99233.72;;;4.58;99.80
26376;BME280;30544;42.196;24.336;2023-03-04T05:22:38;99242.59;;;4.60;99.69
26376;BME280;30544;42.196;24.336;2023-03-04T05:25:05;99242.56;;;4.46;100.00
26376;BME280;30544;42.196;24.336;2023-03-04T05:27:32;99243.66;;;4.59;99.47
26376;BME280;30544;42.196;24.336;2023-03-04T05:29:59;99247.25;;;4.59;98.69
26376;BME280;30544;42.196;24.336;2023-03-04T05:32:26;99242.34;;;4.41;98.47
26376;BME280;30544;42.196;24.336;2023-03-04T05:34:53;99245.25;;;4.20;99.88
26376;BME280;30544;42.196;24.336;2023-03-04T05:37:22;99247.19;;;4.39;99.66
26376;BME280;30544;42.196;24.336;2023-03-04T05:39:48;99242.97;;;4.50;98.52
26376;BME280;30544;42.196;24.336;2023-03-04T05:42:15;99231.59;;;4.60;99.37
26376;BME280;30544;42.196;24.336;2023-03-04T05:44:42;99244.69;;;4.64;98.28
26376;BME280;30544;42.196;24.336;2023-03-04T05:47:09;99252.75;;;4.79;97.66
26376;BME280;30544;42.196;24.336;2023-03-04T05:49:35;99253.41;;;5.07;97.09
26376;BME280;30544;42.196;24.336;2023-03-04T05:52:02;99256.34;;;4.99;96.88
26376;BME280;30544;42.196;24.336;2023-03-04T05:54:30;99254.69;;;5.11;96.45
26376;BME280;30544;42.196;24.336;2023-03-04T05:56:57;99257.00;;;5.21;95.96
26376;BME280;30544;42.196;24.336;2023-03-04T05:59:24;99266.28;;;5.20;95.35
26376;BME280;30544;42.196;24.336;2023-03-04T06:01:51;99266.72;;;4.91;97.07
26376;BME280;30544;42.196;24.336;2023-03-04T06:04:18;99265.84;;;4.83;97.84
26376;BME280;30544;42.196;24.336;2023-03-04T06:06:45;99272.47;;;5.22;97.20
26376;BME280;30544;42.196;24.336;2023-03-04T06:09:12;99269.47;;;5.30;96.24
26376;BME280;30544;42.196;24.336;2023-03-04T06:11:40;99263.34;;;5.28;95.47
26376;BME280;30544;42.196;24.336;2023-03-04T06:14:07;99268.22;;;5.06;96.71
26376;BME280;30544;42.196;24.336;2023-03-04T06:16:34;99270.31;;;5.18;96.83
26376;BME280;30544;42.196;24.336;2023-03-04T06:19:00;99273.88;;;5.64;95.33
26376;BME280;30544;42.196;24.336;2023-03-04T06:21:28;99274.88;;;5.96;93.77
26376;BME280;30544;42.196;24.336;2023-03-04T06:23:54;99282.78;;;5.47;94.20
26376;BME280;30544;42.196;24.336;2023-03-04T06:26:21;99279.44;;;5.38;94.93
26376;BME280;30544;42.196;24.336;2023-03-04T06:28:49;99290.63;;;5.50;95.36
26376;BME280;30544;42.196;24.336;2023-03-04T06:31:16;99282.31;;;5.96;94.05
26376;BME280;30544;42.196;24.336;2023-03-04T06:33:43;99289.06;;;6.00;93.48
26376;BME280;30544;42.196;24.336;2023-03-04T06:36:10;99303.19;;;6.17;92.39
26376;BME280;30544;42.196;24.336;2023-03-04T06:38:37;99295.50;;;6.32;92.04
26376;BME280;30544;42.196;24.336;2023-03-04T06:41:08;99302.97;;;6.25;92.68
26376;BME280;30544;42.196;24.336;2023-03-04T06:43:35;99295.41;;;6.52;92.01
26376;BME280;30544;42.196;24.336;2023-03-04T06:46:04;99293.88;;;6.62;91.02
26376;BME280;30544;42.196;24.336;2023-03-04T06:48:30;99302.03;;;6.44;90.48
26376;BME280;30544;42.196;24.336;2023-03-04T06:50:57;99302.03;;;6.38;91.02
26376;BME280;30544;42.196;24.336;2023-03-04T06:53:24;99303.41;;;6.15;91.42
26376;BME280;30544;42.196;24.336;2023-03-04T06:55:51;99304.72;;;6.06;92.51
26376;BME280;30544;42.196;24.336;2023-03-04T06:58:18;99306.56;;;6.19;92.93
26376;BME280;30544;42.196;24.336;2023-03-04T07:00:44;99305.06;;;6.29;91.46
26376;BME280;30544;42.196;24.336;2023-03-04T07:03:12;99310.66;;;6.03;92.79
26376;BME280;30544;42.196;24.336;2023-03-04T07:05:39;99306.19;;;6.60;91.08
26376;BME280;30544;42.196;24.336;2023-03-04T07:08:07;99315.16;;;6.49;90.39
26376;BME280;30544;42.196;24.336;2023-03-04T07:10:34;99309.28;;;6.32;91.68
26376;BME280;30544;42.196;24.336;2023-03-04T07:13:01;99310.41;;;6.62;90.80
26376;BME280;30544;42.196;24.336;2023-03-04T07:15:28;99306.31;;;6.78;90.75
26376;BME280;30544;42.196;24.336;2023-03-04T07:17:55;99301.09;;;6.63;90.46
26376;BME280;30544;42.196;24.336;2023-03-04T07:20:23;99306.03;;;6.48;91.65
26376;BME280;30544;42.196;24.336;2023-03-04T07:22:50;99298.59;;;6.55;91.98
26376;BME280;30544;42.196;24.336;2023-03-04T07:25:17;99299.63;;;6.54;91.20
26376;BME280;30544;42.196;24.336;2023-03-04T07:27:43;99286.03;;;6.98;90.96
26376;BME280;30544;42.196;24.336;2023-03-04T07:30:11;99292.75;;;6.70;90.93
26376;BME280;30544;42.196;24.336;2023-03-04T07:32:38;99276.56;;;6.55;91.78
26376;BME280;30544;42.196;24.336;2023-03-04T07:35:05;99275.69;;;7.18;90.48
26376;BME280;30544;42.196;24.336;2023-03-04T07:37:34;99274.66;;;7.37;89.53
26376;BME280;30544;42.196;24.336;2023-03-04T07:40:00;99277.00;;;6.84;90.29
26376;BME280;30544;42.196;24.336;2023-03-04T07:42:28;99284.00;;;7.36;89.20
26376;BME280;30544;42.196;24.336;2023-03-04T07:44:55;99283.69;;;6.63;90.53
26376;BME280;30544;42.196;24.336;2023-03-04T07:47:22;99281.16;;;7.24;90.40
26376;BME280;30544;42.196;24.336;2023-03-04T07:49:48;99283.16;;;7.36;89.43
26376;BME280;30544;42.196;24.336;2023-03-04T07:52:15;99282.56;;;7.09;90.21
26376;BME280;30544;42.196;24.336;2023-03-04T07:54:43;99289.88;;;7.46;90.12
26376;BME280;30544;42.196;24.336;2023-03-04T07:57:10;99286.00;;;7.72;88.41
26376;BME280;30544;42.196;24.336;2023-03-04T07:59:37;99297.94;;;7.48;87.64
26376;BME280;30544;42.196;24.336;2023-03-04T08:02:04;99284.72;;;7.75;87.23
26376;BME280;30544;42.196;24.336;2023-03-04T08:04:31;99288.63;;;7.17;90.23
26376;BME280;30544;42.196;24.336;2023-03-04T08:06:58;99291.00;;;7.14;90.41
26376;BME280;30544;42.196;24.336;2023-03-04T08:09:24;99289.84;;;7.71;90.09
26376;BME280;30544;42.196;24.336;2023-03-04T08:11:53;99288.72;;;7.54;88.28
26376;BME280;30544;42.196;24.336;2023-03-04T08:14:20;99280.34;;;7.67;88.33
26376;BME280;30544;42.196;24.336;2023-03-04T08:16:46;99284.28;;;7.96;86.85
26376;BME280;30544;42.196;24.336;2023-03-04T08:19:13;99289.53;;;7.36;88.09
26376;BME280;30544;42.196;24.336;2023-03-04T08:21:40;99281.66;;;8.01;86.71
26376;BME280;30544;42.196;24.336;2023-03-04T08:24:07;99284.59;;;8.06;86.40
26376;BME280;30544;42.196;24.336;2023-03-04T08:26:35;99285.69;;;8.24;87.91
26376;BME280;30544;42.196;24.336;2023-03-04T08:29:09;99292.97;;;8.85;83.63
26376;BME280;30544;42.196;24.336;2023-03-04T08:31:36;99289.22;;;8.79;82.76
26376;BME280;30544;42.196;24.336;2023-03-04T08:34:04;99285.75;;;8.84;83.66
26376;BME280;30544;42.196;24.336;2023-03-04T08:36:32;99290.94;;;7.89;85.50
26376;BME280;30544;42.196;24.336;2023-03-04T08:38:59;99278.34;;;8.66;84.11
26376;BME280;30544;42.196;24.336;2023-03-04T08:41:25;99284.00;;;9.01;82.24
26376;BME280;30544;42.196;24.336;2023-03-04T08:43:53;99288.28;;;9.39;81.91
26376;BME280;30544;42.196;24.336;2023-03-04T08:46:21;99283.81;;;8.84;81.75
26376;BME280;30544;42.196;24.336;2023-03-04T08:48:48;99287.13;;;8.93;84.37
26376;BME280;30544;42.196;24.336;2023-03-04T08:51:15;99281.22;;;9.43;81.62
26376;BME280;30544;42.196;24.336;2023-03-04T08:53:43;99283.13;;;9.30;81.66
26376;BME280;30544;42.196;24.336;2023-03-04T08:56:10;99277.78;;;8.76;82.89
26376;BME280;30544;42.196;24.336;2023-03-04T08:58:37;99283.06;;;9.07;82.00
26376;BME280;30544;42.196;24.336;2023-03-04T09:01:07;99285.53;;;9.50;80.14
26376;BME280;30544;42.196;24.336;2023-03-04T09:03:35;99279.28;;;9.67;80.11
26376;BME280;30544;42.196;24.336;2023-03-04T09:06:03;99271.84;;;9.44;81.89
26376;BME280;30544;42.196;24.336;2023-03-04T09:08:31;99276.38;;;8.55;83.35
26376;BME280;30544;42.196;24.336;2023-03-04T09:10:58;99271.84;;;8.60;83.71
26376;BME280;30544;42.196;24.336;2023-03-04T09:13:27;99266.84;;;9.11;80.81
26376;BME280;30544;42.196;24.336;2023-03-04T09:15:55;99265.31;;;9.26;82.77
26376;BME280;30544;42.196;24.336;2023-03-04T09:18:23;99269.66;;;9.81;79.88
26376;BME280;30544;42.196;24.336;2023-03-04T09:20:52;99278.59;;;9.06;82.61
26376;BME280;30544;42.196;24.336;2023-03-04T09:23:20;99270.69;;;9.10;83.08
26376;BME280;30544;42.196;24.336;2023-03-04T09:25:47;99264.25;;;9.51;81.60
26376;BME280;30544;42.196;24.336;2023-03-04T09:28:15;99266.25;;;9.20;81.49
26376;BME280;30544;42.196;24.336;2023-03-04T09:30:42;99266.63;;;9.35;82.94
26376;BME280;30544;42.196;24.336;2023-03-04T09:33:09;99263.59;;;9.14;83.15
26376;BME280;30544;42.196;24.336;2023-03-04T09:35:36;99260.38;;;9.28;82.76
26376;BME280;30544;42.196;24.336;2023-03-04T09:38:05;99264.97;;;9.58;80.76
26376;BME280;30544;42.196;24.336;2023-03-04T09:40:38;99258.34;;;9.82;80.16
26376;BME280;30544;42.196;24.336;2023-03-04T09:43:09;99259.78;;;9.85;80.19
26376;BME280;30544;42.196;24.336;2023-03-04T09:45:41;99264.84;;;9.64;82.55
26376;BME280;30544;42.196;24.336;2023-03-04T09:48:12;99257.59;;;9.87;81.57
26376;BME280;30544;42.196;24.336;2023-03-04T09:50:48;99252.75;;;10.29;78.79
26376;BME280;30544;42.196;24.336;2023-03-04T09:53:23;99243.44;;;10.35;77.72
26376;BME280;30544;42.196;24.336;2023-03-04T09:55:52;99242.41;;;10.13;79.00
26376;BME280;30544;42.196;24.336;2023-03-04T09:58:27;99238.63;;;10.42;78.03
26376;BME280;30544;42.196;24.336;2023-03-04T10:01:02;99236.44;;;10.73;76.20
26376;BME280;30544;42.196;24.336;2023-03-04T10:03:39;99234.44;;;10.05;77.27
26376;BME280;30544;42.196;24.336;2023-03-04T10:06:10;99234.69;;;10.15;78.26
26376;BME280;30544;42.196;24.336;2023-03-04T10:08:44;99236.28;;;10.51;76.90
26376;BME280;30544;42.196;24.336;2023-03-04T10:11:16;99227.03;;;10.45;77.25
26376;BME280;30544;42.196;24.336;2023-03-04T10:13:53;99223.34;;;10.16;77.14
26376;BME280;30544;42.196;24.336;2023-03-04T10:16:25;99223.47;;;10.21;78.27
26376;BME280;30544;42.196;24.336;2023-03-04T10:18:55;99222.06;;;9.95;78.39
26376;BME280;30544;42.196;24.336;2023-03-04T10:21:25;99230.72;;;10.11;77.35
26376;BME280;30544;42.196;24.336;2023-03-04T10:23:56;99219.03;;;10.09;78.29
26376;BME280;30544;42.196;24.336;2023-03-04T10:26:28;99216.91;;;10.39;78.35
26376;BME280;30544;42.196;24.336;2023-03-04T10:28:57;99203.16;;;10.44;77.88
26376;BME280;30544;42.196;24.336;2023-03-04T10:31:31;99202.34;;;9.57;79.80
26376;BME280;30544;42.196;24.336;2023-03-04T10:33:59;99194.84;;;10.44;79.98
26376;BME280;30544;42.196;24.336;2023-03-04T10:36:35;99188.41;;;10.15;78.19
26376;BME280;30544;42.196;24.336;2023-03-04T10:39:08;99188.00;;;10.35;77.25
26376;BME280;30544;42.196;24.336;2023-03-04T10:41:36;99181.31;;;10.48;76.76
26376;BME280;30544;42.196;24.336;2023-03-04T10:44:14;99174.16;;;10.35;81.09
26376;BME280;30544;42.196;24.336;2023-03-04T10:46:43;99176.41;;;10.38;81.33
26376;BME280;30544;42.196;24.336;2023-03-04T10:49:11;99177.59;;;10.88;79.00
26376;BME280;30544;42.196;24.336;2023-03-04T10:51:41;99168.00;;;10.62;82.46
26376;BME280;30544;42.196;24.336;2023-03-04T10:54:21;99161.19;;;11.53;78.07
26376;BME280;30544;42.196;24.336;2023-03-04T10:56:56;99166.91;;;11.63;78.96
26376;BME280;30544;42.196;24.336;2023-03-04T10:59:34;99160.03;;;10.82;77.98
26376;BME280;30544;42.196;24.336;2023-03-04T11:02:15;99148.84;;;11.44;78.91
26376;BME280;30544;42.196;24.336;2023-03-04T11:04:42;99153.38;;;11.89;75.84
26376;BME280;30544;42.196;24.336;2023-03-04T11:07:14;99148.84;;;11.44;78.00
26376;BME280;30544;42.196;24.336;2023-03-04T11:09:43;99144.81;;;11.35;76.43
26376;BME280;30544;42.196;24.336;2023-03-04T11:12:12;99139.63;;;11.99;76.30
26376;BME280;30544;42.196;24.336;2023-03-04T11:14:43;99135.19;;;12.25;75.33
26376;BME280;30544;42.196;24.336;2023-03-04T11:17:22;99128.03;;;11.85;75.44
26376;BME280;30544;42.196;24.336;2023-03-04T11:19:54;99122.69;;;11.79;75.82
26376;BME280;30544;42.196;24.336;2023-03-04T11:22:23;99121.41;;;11.48;76.67
26376;BME280;30544;42.196;24.336;2023-03-04T11:25:06;99125.53;;;11.45;77.12
26376;BME280;30544;42.196;24.336;2023-03-04T11:27:40;99121.69;;;11.12;77.80
26376;BME280;30544;42.196;24.336;2023-03-04T11:30:24;99107.69;;;12.01;74.38
26376;BME280;30544;42.196;24.336;2023-03-04T11:32:55;99096.69;;;11.90;73.79
26376;BME280;30544;42.196;24.336;2023-03-04T11:35:30;99098.19;;;11.97;74.85
26376;BME280;30544;42.196;24.336;2023-03-04T11:38:03;99101.53;;;11.78;74.31
26376;BME280;30544;42.196;24.336;2023-03-04T11:40:38;99094.72;;;11.68;76.88
26376;BME280;30544;42.196;24.336;2023-03-04T11:43:13;99097.31;;;10.98;77.55
26376;BME280;30544;42.196;24.336;2023-03-04T11:45:53;99088.44;;;11.34;75.99
26376;BME280;30544;42.196;24.336;2023-03-04T11:48:34;99092.44;;;10.71;78.86
26376;BME280;30544;42.196;24.336;2023-03-04T11:51:06;99090.69;;;10.82;78.63
26376;BME280;30544;42.196;24.336;2023-03-04T11:53:39;99086.81;;;10.83;79.48
26376;BME280;30544;42.196;24.336;2023-03-04T11:56:25;99087.81;;;10.60;79.61
26376;BME280;30544;42.196;24.336;2023-03-04T11:59:25;99090.25;;;10.90;77.97
26376;BME280;30544;42.196;24.336;2023-03-04T12:02:02;99081.50;;;10.19;78.93
26376;BME280;30544;42.196;24.336;2023-03-04T12:04:44;99076.38;;;10.90;77.32
26376;BME280;30544;42.196;24.336;2023-03-04T12:07:31;99080.25;;;10.89;77.76
26376;BME280;30544;42.196;24.336;2023-03-04T12:10:15;99077.75;;;11.43;76.43
26376;BME280;30544;42.196;24.336;2023-03-04T12:12:57;99078.03;;;11.85;74.91
26376;BME280;30544;42.196;24.336;2023-03-04T12:15:31;99076.25;;;12.01;73.09
26376;BME280;30544;42.196;24.336;2023-03-04T12:18:17;99063.84;;;12.35;74.15
26376;BME280;30544;42.196;24.336;2023-03-04T12:20:55;99054.16;;;11.45;75.14
26376;BME280;30544;42.196;24.336;2023-03-04T12:23:43;99053.44;;;11.99;75.12
26376;BME280;30544;42.196;24.336;2023-03-04T12:26:24;99060.91;;;12.20;73.84
26376;BME280;30544;42.196;24.336;2023-03-04T12:29:03;99057.44;;;12.99;70.61
26376;BME280;30544;42.196;24.336;2023-03-04T12:31:35;99052.88;;;13.20;68.37
26376;BME280;30544;42.196;24.336;2023-03-04T12:37:22;99046.22;;;13.26;67.80
26376;BME280;30544;42.196;24.336;2023-03-04T12:42:55;99027.88;;;14.03;66.51
26376;BME280;30544;42.196;24.336;2023-03-04T12:45:31;99030.44;;;14.14;64.94
26376;BME280;30544;42.196;24.336;2023-03-04T12:48:13;99035.84;;;13.64;65.47
26376;BME280;30544;42.196;24.336;2023-03-04T12:50:53;99038.66;;;13.21;67.21
26376;BME280;30544;42.196;24.336;2023-03-04T12:53:28;99035.66;;;13.28;65.73
26376;BME280;30544;42.196;24.336;2023-03-04T12:55:58;99026.66;;;13.16;68.38
26376;BME280;30544;42.196;24.336;2023-03-04T12:58:27;99017.59;;;12.93;68.47
26376;BME280;30544;42.196;24.336;2023-03-04T13:01:03;99017.91;;;13.02;66.30
26376;BME280;30544;42.196;24.336;2023-03-04T13:03:40;99017.09;;;12.64;68.19
26376;BME280;30544;42.196;24.336;2023-03-04T13:06:18;99020.53;;;12.77;67.75
26376;BME280;30544;42.196;24.336;2023-03-04T13:08:57;99009.53;;;13.39;66.66
26376;BME280;30544;42.196;24.336;2023-03-04T13:11:38;99013.69;;;12.57;67.72
26376;BME280;30544;42.196;24.336;2023-03-04T13:14:07;99004.03;;;13.07;66.46